createdAt,value
2018-03-19T00:00:34.444Z,88.52
2018-03-19T00:01:34.426Z,88.33
2018-03-19T00:02:34.499Z,87.38
2018-03-19T00:03:34.400Z,88.14
2018-03-19T00:04:35.175Z,88.80
2018-03-19T00:05:34.402Z,88.80
2018-03-19T00:06:34.374Z,88.61
2018-03-19T00:07:34.719Z,87.29
2018-03-19T00:08:35.147Z,86.54
2018-03-19T00:09:34.345Z,88.42
2018-03-19T00:10:34.358Z,87.76
2018-03-19T00:11:34.354Z,87.10
2018-03-19T00:12:35.159Z,85.78
2018-03-19T00:13:35.182Z,85.88
2018-03-19T00:16:09.106Z,88.14
2018-03-19T00:17:08.906Z,88.04
2018-03-19T00:18:09.510Z,89.46
2018-03-19T00:19:08.822Z,88.33
2018-03-19T00:20:08.795Z,85.88
2018-03-19T00:21:09.444Z,85.31
2018-03-19T00:22:08.795Z,88.89
2018-03-19T00:23:08.811Z,87.19
2018-03-19T00:24:09.523Z,87.48
2018-03-19T00:25:08.794Z,87.19
2018-03-19T00:26:08.748Z,86.82
2018-03-19T00:27:08.744Z,86.44
2018-03-19T00:28:09.523Z,87.95
2018-03-19T00:29:09.352Z,85.88
2018-03-19T00:30:08.716Z,82.95
2018-03-19T00:31:08.689Z,84.56
2018-03-19T00:32:09.501Z,84.65
2018-03-19T00:33:09.007Z,87.19
2018-03-19T00:34:08.654Z,87.48
2018-03-19T00:35:09.506Z,82.95
2018-03-19T00:37:43.412Z,88.61
2018-03-19T00:38:43.177Z,87.48
2018-03-19T00:39:43.148Z,85.13
2018-03-19T00:40:43.847Z,87.95
2018-03-19T00:41:43.136Z,87.86
2018-03-19T00:42:43.178Z,87.19
2018-03-19T00:43:43.109Z,86.44
2018-03-19T00:44:43.877Z,86.63
2018-03-19T00:45:43.131Z,87.10
2018-03-19T00:46:43.850Z,86.63
2018-03-19T00:47:43.094Z,88.04
2018-03-19T00:48:43.877Z,85.13
2018-03-19T00:49:43.072Z,86.91
2018-03-19T00:50:43.042Z,84.56
2018-03-19T00:51:43.018Z,86.07
2018-03-19T00:52:43.065Z,84.94
2018-03-19T00:53:42.995Z,86.72
2018-03-19T00:54:42.990Z,87.57
2018-03-19T00:55:43.012Z,88.14
2018-03-19T00:56:43.701Z,84.94
2018-03-19T00:59:17.752Z,85.41
2018-03-19T01:00:17.575Z,87.76
2018-03-19T01:01:17.446Z,87.48
2018-03-19T01:02:17.442Z,86.44
2018-03-19T01:03:17.685Z,84.84
2018-03-19T01:04:17.479Z,88.04
2018-03-19T01:05:17.436Z,85.31
2018-03-19T01:06:17.429Z,85.78
2018-03-19T01:07:17.445Z,86.35
2018-03-19T01:08:17.433Z,87.76
2018-03-19T01:09:17.389Z,86.35
2018-03-19T01:10:17.369Z,85.78
2018-03-19T01:11:17.371Z,83.71
2018-03-19T01:12:17.671Z,88.33
2018-03-19T01:13:18.189Z,87.38
2018-03-19T01:14:18.178Z,88.04
2018-03-19T01:15:17.303Z,86.44
2018-03-19T01:16:18.158Z,86.25
2018-03-19T01:17:17.322Z,89.18
2018-03-19T01:18:18.183Z,85.69
2018-03-19T01:19:40.150Z,88.14
2018-03-19T01:20:17.273Z,84.65
2018-03-19T01:21:17.706Z,88.42
2018-03-19T01:22:18.173Z,85.78
2018-03-19T01:23:18.174Z,86.25
2018-03-19T01:24:17.221Z,88.14
2018-03-19T01:25:17.660Z,83.43
2018-03-19T01:26:17.263Z,87.10
2018-03-19T01:27:17.198Z,86.35
2018-03-19T01:28:17.222Z,83.99
2018-03-19T01:29:17.211Z,86.63
2018-03-19T01:30:18.203Z,86.07
2018-03-19T01:31:17.662Z,86.35
2018-03-19T01:32:17.663Z,85.60
2018-03-19T01:33:17.661Z,88.23
2018-03-19T01:34:17.663Z,88.52
2018-03-19T01:35:17.086Z,84.18
2018-03-19T01:36:17.666Z,85.69
2018-03-19T01:37:17.166Z,86.72
2018-03-19T01:38:17.672Z,87.95
2018-03-19T01:39:17.096Z,83.52
2018-03-19T01:41:52.066Z,87.19
2018-03-19T01:42:51.967Z,88.52
2018-03-19T01:43:51.891Z,88.33
2018-03-19T01:44:51.844Z,86.44
2018-03-19T01:45:51.846Z,87.29
2018-03-19T01:46:52.764Z,84.65
2018-03-19T01:47:52.261Z,87.38
2018-03-19T01:48:51.805Z,84.94
2018-03-19T01:49:52.760Z,86.07
2018-03-19T01:50:52.776Z,87.19
2018-03-19T01:51:51.793Z,86.25
2018-03-19T01:52:52.804Z,84.94
2018-03-19T01:53:52.295Z,85.88
2018-03-19T01:54:52.237Z,83.33
2018-03-19T01:55:51.721Z,87.48
2018-03-19T01:56:51.756Z,86.35
2018-03-19T01:57:51.770Z,86.44
2018-03-19T01:58:51.696Z,87.38
2018-03-19T01:59:51.700Z,83.61
2018-03-19T02:00:51.672Z,88.52
2018-03-19T02:03:26.498Z,86.25
2018-03-19T02:04:26.204Z,86.54
2018-03-19T02:05:26.182Z,84.94
2018-03-19T02:06:26.212Z,86.54
2018-03-19T02:07:26.225Z,87.48
2018-03-19T02:08:26.140Z,87.95
2018-03-19T02:09:26.902Z,86.63
2018-03-19T02:10:26.121Z,85.22
2018-03-19T02:11:26.112Z,85.41
2018-03-19T02:12:26.143Z,84.94
2018-03-19T02:13:26.361Z,87.38
2018-03-19T02:14:26.853Z,85.22
2018-03-19T02:15:26.075Z,86.44
2018-03-19T02:16:26.897Z,87.57
2018-03-19T02:17:26.065Z,87.95
2018-03-19T02:18:26.038Z,85.88
2018-03-19T02:19:26.861Z,85.41
2018-03-19T02:20:26.868Z,85.31
2018-03-19T02:21:26.004Z,87.86
2018-03-19T02:22:26.866Z,86.35
2018-03-19T02:25:00.825Z,82.67
2018-03-19T02:26:00.574Z,87.10
2018-03-19T02:27:00.489Z,84.56
2018-03-19T02:28:00.479Z,81.63
2018-03-19T02:29:01.169Z,83.52
2018-03-19T02:30:00.429Z,85.64
2018-03-19T02:31:00.453Z,85.74
2018-03-19T02:32:00.458Z,87.95
2018-03-19T02:33:01.157Z,86.87
2018-03-19T02:34:01.180Z,88.19
2018-03-19T02:35:00.435Z,84.99
2018-03-19T02:36:00.421Z,83.43
2018-03-19T02:37:00.410Z,84.28
2018-03-19T02:38:01.191Z,87.19
2018-03-19T02:39:01.234Z,86.77
2018-03-19T02:40:01.183Z,86.21
2018-03-19T02:41:00.345Z,87.91
2018-03-19T02:42:00.362Z,86.77
2018-03-19T02:43:00.290Z,86.02
2018-03-19T02:44:01.201Z,86.21
2018-03-19T02:45:26.206Z,84.89
2018-03-19T02:46:00.296Z,85.74
2018-03-19T02:47:00.273Z,87.06
2018-03-19T02:48:00.296Z,85.93
2018-03-19T02:49:01.161Z,86.68
2018-03-19T02:50:01.180Z,85.55
2018-03-19T02:51:00.213Z,87.15
2018-03-19T02:52:00.698Z,86.40
2018-03-19T02:53:00.207Z,86.02
2018-03-19T02:54:00.197Z,84.70
2018-03-19T02:55:00.169Z,86.21
2018-03-19T02:56:00.427Z,86.96
2018-03-19T02:57:00.207Z,84.89
2018-03-19T02:58:00.787Z,87.15
2018-03-19T02:59:01.158Z,83.95
2018-03-19T03:00:00.127Z,86.02
2018-03-19T03:01:00.086Z,86.02
2018-03-19T03:02:00.137Z,84.52
2018-03-19T03:03:00.084Z,82.07
2018-03-19T03:04:00.688Z,84.05
2018-03-19T03:05:00.066Z,82.92
2018-03-19T03:07:34.798Z,83.58
2018-03-19T03:08:34.578Z,85.46
2018-03-19T03:09:35.257Z,83.67
2018-03-19T03:10:34.581Z,84.33
2018-03-19T03:11:34.560Z,82.92
2018-03-19T03:12:35.244Z,83.39
2018-03-19T03:13:34.515Z,85.08
2018-03-19T03:14:34.732Z,84.42
2018-03-19T03:15:35.263Z,82.35
2018-03-19T03:16:35.249Z,81.69
2018-03-19T03:17:35.268Z,86.02
2018-03-19T03:18:35.250Z,83.29
2018-03-19T03:19:35.246Z,81.69
2018-03-19T03:20:34.469Z,83.86
2018-03-19T03:21:34.492Z,84.05
2018-03-19T03:22:34.437Z,84.23
2018-03-19T03:23:34.402Z,84.42
2018-03-19T03:24:35.248Z,84.80
2018-03-19T03:25:34.416Z,84.61
2018-03-19T03:26:35.278Z,82.82
2018-03-19T03:29:10.349Z,84.42
2018-03-19T03:30:10.618Z,80.08
2018-03-19T03:31:10.081Z,85.74
2018-03-19T03:32:09.872Z,85.08
2018-03-19T03:33:09.861Z,83.86
2018-03-19T03:34:10.562Z,82.54
2018-03-19T03:35:10.070Z,80.84
2018-03-19T03:36:10.107Z,81.12
2018-03-19T03:37:09.863Z,83.10
2018-03-19T03:38:10.577Z,81.97
2018-03-19T03:39:09.809Z,80.46
2018-03-19T03:40:09.799Z,77.73
2018-03-19T03:41:10.554Z,84.14
2018-03-19T03:42:09.799Z,82.92
2018-03-19T03:43:10.576Z,82.54
2018-03-19T03:44:09.714Z,82.54
2018-03-19T03:45:09.789Z,83.58
2018-03-19T03:46:10.083Z,82.16
2018-03-19T03:47:09.729Z,77.07
2018-03-19T03:48:09.696Z,80.37
2018-03-19T03:50:44.498Z,79.24
2018-03-19T03:51:44.908Z,82.82
2018-03-19T03:52:44.198Z,82.82
2018-03-19T03:53:44.902Z,83.67
2018-03-19T03:54:44.897Z,82.07
2018-03-19T03:55:44.239Z,82.07
2018-03-19T03:56:44.141Z,82.82
2018-03-19T03:57:44.186Z,84.89
2018-03-19T03:58:45.749Z,80.27
2018-03-19T03:59:44.133Z,81.41
2018-03-19T04:00:44.567Z,78.49
2018-03-19T04:01:44.102Z,79.05
2018-03-19T04:02:44.109Z,74.34
2018-03-19T04:03:44.893Z,78.49
2018-03-19T04:04:44.080Z,73.49
2018-03-19T04:05:44.892Z,75.75
2018-03-19T04:06:44.037Z,76.70
2018-03-19T04:07:44.517Z,81.41
2018-03-19T04:08:44.007Z,78.77
2018-03-19T04:09:44.418Z,80.46
2018-03-19T04:12:19.824Z,78.49
2018-03-19T04:13:19.543Z,77.45
2018-03-19T04:14:19.516Z,79.24
2018-03-19T04:15:19.506Z,77.55
2018-03-19T04:16:20.218Z,77.45
2018-03-19T04:17:19.504Z,79.33
2018-03-19T04:18:19.500Z,77.26
2018-03-19T04:19:19.481Z,78.49
2018-03-19T04:20:19.544Z,74.71
2018-03-19T04:21:19.464Z,77.83
2018-03-19T04:22:20.230Z,77.45
2018-03-19T04:23:19.426Z,73.39
2018-03-19T04:24:19.447Z,77.45
2018-03-19T04:25:19.408Z,74.53
2018-03-19T04:26:20.203Z,73.58
2018-03-19T04:27:19.408Z,70.95
2018-03-19T04:28:19.374Z,73.39
2018-03-19T04:29:19.382Z,74.90
2018-03-19T04:30:19.357Z,74.24
2018-03-19T04:31:19.347Z,73.58
2018-03-19T04:33:54.164Z,72.92
2018-03-19T04:34:53.927Z,71.80
2018-03-19T04:35:53.839Z,70.29
2018-03-19T04:36:53.805Z,74.71
2018-03-19T04:37:54.010Z,74.34
2018-03-19T04:38:53.779Z,72.45
2018-03-19T04:39:53.782Z,68.02
2018-03-19T04:40:54.525Z,71.89
2018-03-19T04:41:53.730Z,74.62
2018-03-19T04:42:53.756Z,71.80
2018-03-19T04:43:53.703Z,73.08
2018-03-19T04:44:53.699Z,68.74
2018-03-19T04:45:53.698Z,70.86
2018-03-19T04:46:54.077Z,65.73
2018-03-19T04:47:53.712Z,64.23
2018-03-19T04:48:53.663Z,69.25
2018-03-19T04:49:53.643Z,67.18
2018-03-19T04:50:53.643Z,70.57
2018-03-19T04:51:53.628Z,70.95
2018-03-19T04:52:53.642Z,72.74
2018-03-19T04:55:28.338Z,74.05
2018-03-19T04:56:28.129Z,73.77
2018-03-19T04:57:28.162Z,71.23
2018-03-19T04:58:28.799Z,70.86
2018-03-19T04:59:28.097Z,74.71
2018-03-19T05:00:28.076Z,74.02
2018-03-19T05:01:28.820Z,72.89
2018-03-19T05:02:28.790Z,72.33
2018-03-19T05:03:28.080Z,72.51
2018-03-19T05:04:28.806Z,70.63
2018-03-19T05:05:28.037Z,71.29
2018-03-19T05:06:28.803Z,72.33
2018-03-19T05:07:28.035Z,72.33
2018-03-19T05:08:28.819Z,72.61
2018-03-19T05:09:27.992Z,72.42
2018-03-19T05:10:27.935Z,72.33
2018-03-19T05:11:27.995Z,72.23
2018-03-19T05:12:27.999Z,70.53
2018-03-19T05:13:27.935Z,71.48
2018-03-19T05:14:27.896Z,70.16
2018-03-19T05:17:03.061Z,68.46
2018-03-19T05:18:03.138Z,71.57
2018-03-19T05:19:02.429Z,71.57
2018-03-19T05:20:02.402Z,72.61
2018-03-19T05:21:02.434Z,70.76
2018-03-19T05:22:03.109Z,73.02
2018-03-19T05:23:02.403Z,75.38
2018-03-19T05:24:03.094Z,74.24
2018-03-19T05:25:02.369Z,75.00
2018-03-19T05:26:02.342Z,74.81
2018-03-19T05:27:03.112Z,74.71
2018-03-19T05:28:02.318Z,74.15
2018-03-19T05:29:02.292Z,75.38
2018-03-19T05:30:03.079Z,74.34
2018-03-19T05:31:02.290Z,73.21
2018-03-19T05:32:02.267Z,74.81
2018-03-19T05:33:02.233Z,75.94
2018-03-19T05:34:02.254Z,75.56
2018-03-19T05:35:02.214Z,76.79
2018-03-19T05:36:02.250Z,77.64
2018-03-19T05:38:38.085Z,79.99
2018-03-19T05:39:37.774Z,81.59
2018-03-19T05:40:37.698Z,79.33
2018-03-19T05:41:37.783Z,78.20
2018-03-19T05:42:37.694Z,82.07
2018-03-19T05:43:37.679Z,82.54
2018-03-19T05:44:37.671Z,75.47
2018-03-19T05:45:37.687Z,79.52
2018-03-19T05:46:37.918Z,76.41
2018-03-19T05:47:37.626Z,85.17
2018-03-19T05:48:37.646Z,80.74
2018-03-19T05:49:38.081Z,82.92
2018-03-19T05:50:38.434Z,80.08
2018-03-19T05:51:38.409Z,78.86
2018-03-19T05:52:37.594Z,78.67
2018-03-19T05:53:37.565Z,80.08
2018-03-19T05:54:37.539Z,80.84
2018-03-19T05:55:37.544Z,81.41
2018-03-19T05:56:37.901Z,82.44
2018-03-19T05:57:37.538Z,77.55
2018-03-19T06:00:12.274Z,83.39
2018-03-19T06:01:12.070Z,83.58
2018-03-19T06:02:12.026Z,82.44
2018-03-19T06:03:12.009Z,80.93
2018-03-19T06:04:11.972Z,82.54
2018-03-19T06:05:11.993Z,83.29
2018-03-19T06:06:12.016Z,83.86
2018-03-19T06:07:11.940Z,83.67
2018-03-19T06:08:11.942Z,83.01
2018-03-19T06:09:11.964Z,83.01
2018-03-19T06:10:11.920Z,82.54
2018-03-19T06:11:11.957Z,80.84
2018-03-19T06:12:11.909Z,82.82
2018-03-19T06:13:11.911Z,78.81
2018-03-19T06:14:11.892Z,85.13
2018-03-19T06:15:11.921Z,85.31
2018-03-19T06:16:11.848Z,86.35
2018-03-19T06:17:11.838Z,84.56
2018-03-19T06:18:11.835Z,84.65
2018-03-19T06:19:11.884Z,85.03
2018-03-19T06:21:46.595Z,87.29
2018-03-19T06:22:46.390Z,86.35
2018-03-19T06:23:46.341Z,86.16
2018-03-19T06:24:47.016Z,84.09
2018-03-19T06:25:46.357Z,84.18
2018-03-19T06:26:46.320Z,84.18
2018-03-19T06:27:46.332Z,84.94
2018-03-19T06:28:46.321Z,86.07
2018-03-19T06:29:46.270Z,85.69
2018-03-19T06:30:46.301Z,87.34
2018-03-19T06:31:46.263Z,87.34
2018-03-19T06:32:46.278Z,86.21
2018-03-19T06:33:46.275Z,84.41
2018-03-19T06:34:46.232Z,83.37
2018-03-19T06:35:46.274Z,81.58
2018-03-19T06:36:46.222Z,81.87
2018-03-19T06:37:46.208Z,82.06
2018-03-19T06:38:46.199Z,82.62
2018-03-19T06:39:46.247Z,82.15
2018-03-19T06:40:46.884Z,82.06
2018-03-19T06:41:57.044Z,82.43
2018-03-19T06:42:46.169Z,82.06
2018-03-19T06:43:46.156Z,81.68
2018-03-19T06:44:46.162Z,81.87
2018-03-19T06:45:46.183Z,80.54
2018-03-19T06:46:46.152Z,79.88
2018-03-19T06:47:46.133Z,79.69
2018-03-19T06:48:46.134Z,79.22
2018-03-19T06:49:46.181Z,80.17
2018-03-19T06:50:46.177Z,81.02
2018-03-19T06:51:46.097Z,80.30
2018-03-19T06:52:46.104Z,78.51
2018-03-19T06:53:46.089Z,77.72
2018-03-19T06:54:46.087Z,77.25
2018-03-19T06:55:46.134Z,77.72
2018-03-19T06:56:46.069Z,78.94
2018-03-19T06:57:46.052Z,78.28
2018-03-19T06:58:46.061Z,79.69
2018-03-19T06:59:46.071Z,79.88
2018-03-19T07:00:46.093Z,78.75
2018-03-19T07:01:46.039Z,77.94
2018-03-19T07:03:22.038Z,78.19
2018-03-19T07:03:46.027Z,77.56
2018-03-19T07:04:46.005Z,76.87
2018-03-19T07:05:46.078Z,78.04
2018-03-19T07:06:46.023Z,77.47
2018-03-19T07:07:45.998Z,77.09
2018-03-19T07:08:46.002Z,76.43
2018-03-19T07:09:45.989Z,76.25
2018-03-19T07:10:46.034Z,77.19
2018-03-19T07:11:45.993Z,75.21
2018-03-19T07:12:45.994Z,74.55
2018-03-19T07:13:45.974Z,74.83
2018-03-19T07:14:45.955Z,74.83
2018-03-19T07:15:46.023Z,76.34
2018-03-19T07:16:45.952Z,75.68
2018-03-19T07:17:45.968Z,76.72
2018-03-19T07:18:45.980Z,76.15
2018-03-19T07:19:45.933Z,76.06
2018-03-19T07:20:45.947Z,76.53
2018-03-19T07:21:46.018Z,77.00
2018-03-19T07:22:45.941Z,75.11
2018-03-19T07:23:46.586Z,75.40
2018-03-19T07:24:45.930Z,77.19
2018-03-19T07:25:45.930Z,74.26
2018-03-19T07:26:45.991Z,74.36
2018-03-19T07:27:45.910Z,73.32
2018-03-19T07:28:45.909Z,77.66
2018-03-19T07:29:45.906Z,75.21
2018-03-19T07:30:45.912Z,74.74
2018-03-19T07:31:45.962Z,73.51
2018-03-19T07:32:45.927Z,74.26
2018-03-19T07:33:45.890Z,73.69
2018-03-19T07:34:45.915Z,73.22
2018-03-19T07:35:45.887Z,74.55
2018-03-19T07:36:45.874Z,76.57
2018-03-19T07:37:45.916Z,74.74
2018-03-19T07:38:45.858Z,75.43
2018-03-19T07:39:45.883Z,73.51
2018-03-19T07:40:45.871Z,72.75
2018-03-19T07:41:45.913Z,75.02
2018-03-19T07:42:45.913Z,72.47
2018-03-19T07:43:45.892Z,72.66
2018-03-19T07:44:45.849Z,73.41
2018-03-19T07:45:45.856Z,76.62
2018-03-19T07:46:45.946Z,75.78
2018-03-19T07:47:45.996Z,74.26
2018-03-19T07:48:45.873Z,73.69
2018-03-19T07:49:45.869Z,73.69
2018-03-19T07:50:45.833Z,73.98
2018-03-19T07:51:45.846Z,74.74
2018-03-19T07:52:45.861Z,72.47
2018-03-19T07:53:45.871Z,74.07
2018-03-19T07:54:45.839Z,75.53
2018-03-19T07:55:45.839Z,73.83
2018-03-19T07:56:45.839Z,73.26
2018-03-19T07:57:45.879Z,72.94
2018-03-19T07:58:45.808Z,72.88
2018-03-19T07:59:45.845Z,72.32
2018-03-19T08:00:45.816Z,71.66
2018-03-19T08:01:45.824Z,72.51
2018-03-19T08:02:46.383Z,72.69
2018-03-19T08:03:45.825Z,72.47
2018-03-19T08:04:45.827Z,72.69
2018-03-19T08:05:45.876Z,72.69
2018-03-19T08:06:45.824Z,74.21
2018-03-19T08:07:45.862Z,74.58
2018-03-19T08:08:45.892Z,74.77
2018-03-19T08:09:45.816Z,72.66
2018-03-19T08:10:45.818Z,72.75
2018-03-19T08:11:45.800Z,72.60
2018-03-19T08:12:45.836Z,71.66
2018-03-19T08:13:45.861Z,71.09
2018-03-19T08:14:45.794Z,71.25
2018-03-19T08:15:45.798Z,71.06
2018-03-19T08:16:46.480Z,71.00
2018-03-19T08:17:45.798Z,72.51
2018-03-19T08:18:45.842Z,71.88
2018-03-19T08:19:45.820Z,69.24
2018-03-19T08:20:45.796Z,68.07
2018-03-19T08:21:45.819Z,68.29
2018-03-19T08:22:45.797Z,68.63
2018-03-19T08:23:45.921Z,68.63
2018-03-19T08:24:45.804Z,68.35
2018-03-19T08:25:45.807Z,67.32
2018-03-19T08:26:45.811Z,67.41
2018-03-19T08:27:45.849Z,67.50
2018-03-19T08:28:45.857Z,67.60
2018-03-19T08:29:45.803Z,69.01
2018-03-19T08:30:45.831Z,68.16
2018-03-19T08:31:45.804Z,68.07
2018-03-19T08:32:45.807Z,68.35
2018-03-19T08:33:45.856Z,69.01
2018-03-19T08:34:45.799Z,69.01
2018-03-19T08:35:45.806Z,68.44
2018-03-19T08:36:45.831Z,67.60
2018-03-19T08:37:45.802Z,67.00
2018-03-19T08:38:45.846Z,68.54
2018-03-19T08:39:45.814Z,69.01
2018-03-19T08:40:45.832Z,68.16
2018-03-19T08:41:45.837Z,67.32
2018-03-19T08:42:45.804Z,67.32
2018-03-19T08:43:45.875Z,67.13
2018-03-19T08:44:45.814Z,66.65
2018-03-19T08:45:45.805Z,68.63
2018-03-19T08:46:45.820Z,69.01
2018-03-19T08:47:45.808Z,70.24
2018-03-19T08:48:45.851Z,69.30
2018-03-19T08:49:45.814Z,68.26
2018-03-19T08:50:45.820Z,67.54
2018-03-19T08:51:45.807Z,67.03
2018-03-19T08:52:45.815Z,67.32
2018-03-19T08:53:45.901Z,68.26
2018-03-19T08:54:45.842Z,65.90
2018-03-19T08:55:45.816Z,66.22
2018-03-19T08:56:45.836Z,66.56
2018-03-19T08:57:45.840Z,66.65
2018-03-19T08:58:45.861Z,66.75
2018-03-19T08:59:45.851Z,68.16
2018-03-19T09:00:45.879Z,67.88
2018-03-19T09:01:45.848Z,68.73
2018-03-19T09:02:45.855Z,69.86
2018-03-19T09:03:45.920Z,69.67
2018-03-19T09:04:45.838Z,67.16
2018-03-19T09:05:45.860Z,67.25
2018-03-19T09:06:45.898Z,67.22
2018-03-19T09:07:45.849Z,68.54
2018-03-19T09:08:45.851Z,67.88
2018-03-19T09:09:45.907Z,66.56
2018-03-19T09:10:45.861Z,67.32
2018-03-19T09:11:45.887Z,67.54
2018-03-19T09:12:45.855Z,66.18
2018-03-19T09:13:45.861Z,66.47
2018-03-19T09:14:45.903Z,67.25
2018-03-19T09:15:45.863Z,65.93
2018-03-19T09:16:45.874Z,65.84
2018-03-19T09:17:45.889Z,64.95
2018-03-19T09:18:45.893Z,66.12
2018-03-19T09:19:46.014Z,66.97
2018-03-19T09:20:45.884Z,65.93
2018-03-19T09:21:45.882Z,65.65
2018-03-19T09:22:45.893Z,65.65
2018-03-19T09:23:45.891Z,65.33
2018-03-19T09:24:45.939Z,66.09
2018-03-19T09:25:45.893Z,66.94
2018-03-19T09:26:45.924Z,69.20
2018-03-19T09:27:46.381Z,69.20
2018-03-19T09:28:45.939Z,67.91
2018-03-19T09:29:45.977Z,67.35
2018-03-19T09:30:45.953Z,65.84
2018-03-19T09:31:45.948Z,66.41
2018-03-19T09:32:45.931Z,69.05
2018-03-19T09:33:45.921Z,67.41
2018-03-19T09:34:45.941Z,67.41
2018-03-19T09:35:45.972Z,69.58
2018-03-19T09:36:45.942Z,70.18
2018-03-19T09:37:45.914Z,68.07
2018-03-19T09:38:45.965Z,68.44
2018-03-19T09:39:45.983Z,75.00
2018-03-19T09:40:46.003Z,73.58
2018-03-19T09:41:45.963Z,71.50
2018-03-19T09:42:45.978Z,68.26
2018-03-19T09:43:45.961Z,68.63
2018-03-19T09:44:46.270Z,67.63
2018-03-19T09:45:46.022Z,67.88
2018-03-19T09:46:46.291Z,69.90
2018-03-19T09:47:45.979Z,68.35
2018-03-19T09:48:45.992Z,71.31
2018-03-19T09:49:45.994Z,74.34
2018-03-19T09:50:46.051Z,72.73
2018-03-19T09:51:46.027Z,75.57
2018-03-19T09:52:45.986Z,71.50
2018-03-19T09:53:46.018Z,72.64
2018-03-19T09:54:45.995Z,70.37
2018-03-19T09:55:46.079Z,72.92
2018-03-19T09:56:46.019Z,73.24
2018-03-19T09:57:46.027Z,69.27
2018-03-19T09:58:46.051Z,67.03
2018-03-19T09:59:46.035Z,70.18
2018-03-19T10:00:46.045Z,69.90
2018-03-19T10:01:46.073Z,73.96
2018-03-19T10:02:46.107Z,73.86
2018-03-19T10:03:46.049Z,70.47
2018-03-19T10:04:46.063Z,70.09
2018-03-19T10:05:46.092Z,70.47
2018-03-19T10:06:46.148Z,72.17
2018-03-19T10:07:46.087Z,72.30
2018-03-19T10:08:46.105Z,72.45
2018-03-19T10:09:46.094Z,69.52
2018-03-19T10:10:46.135Z,68.95
2018-03-19T10:11:46.090Z,68.95
2018-03-19T10:12:46.143Z,71.03
2018-03-19T10:13:46.138Z,72.26
2018-03-19T10:14:46.120Z,71.79
2018-03-19T10:15:46.157Z,72.36
2018-03-19T10:16:46.237Z,71.73
2018-03-19T10:17:46.137Z,70.59
2018-03-19T10:18:46.137Z,73.14
2018-03-19T10:19:46.158Z,73.24
2018-03-19T10:20:46.198Z,73.43
2018-03-19T10:21:46.133Z,69.37
2018-03-19T10:22:46.187Z,68.33
2018-03-19T10:23:46.153Z,66.69
2018-03-19T10:24:46.171Z,69.24
2018-03-19T10:25:46.221Z,68.57
2018-03-19T10:26:46.180Z,75.38
2018-03-19T10:27:46.245Z,75.32
2018-03-19T10:28:46.178Z,73.81
2018-03-19T10:29:46.226Z,70.40
2018-03-19T10:30:46.713Z,69.56
2018-03-19T10:31:46.191Z,68.95
2018-03-19T10:32:46.251Z,69.14
2018-03-19T10:33:46.225Z,68.99
2018-03-19T10:34:46.218Z,72.11
2018-03-19T10:35:46.218Z,69.14
2018-03-19T10:36:46.234Z,70.31
2018-03-19T10:37:46.264Z,75.83
2018-03-19T10:38:46.265Z,72.14
2018-03-19T10:39:46.328Z,69.74
2018-03-19T10:40:46.263Z,67.85
2018-03-19T10:41:46.272Z,69.62
2018-03-19T10:42:46.305Z,73.43
2018-03-19T10:43:46.291Z,73.71
2018-03-19T10:44:46.262Z,71.92
2018-03-19T10:45:46.367Z,71.54
2018-03-19T10:46:46.909Z,69.74
2018-03-19T10:47:46.293Z,74.85
2018-03-19T10:48:46.356Z,73.43
2018-03-19T10:49:46.297Z,72.20
2018-03-19T10:50:46.313Z,70.47
2018-03-19T10:51:46.313Z,70.09
2018-03-19T10:52:46.363Z,71.54
2018-03-19T10:53:46.355Z,69.56
2018-03-19T10:54:46.327Z,68.42
2018-03-19T10:55:46.351Z,69.24
2018-03-19T10:56:46.337Z,68.57
2018-03-19T10:57:46.390Z,68.67
2018-03-19T10:58:46.367Z,70.97
2018-03-19T10:59:46.350Z,74.09
2018-03-19T11:00:46.369Z,74.60
2018-03-19T11:01:46.356Z,72.62
2018-03-19T11:02:46.385Z,69.49
2018-03-19T11:03:46.432Z,67.66
2018-03-19T11:04:46.394Z,70.59
2018-03-19T11:05:46.388Z,74.19
2018-03-19T11:06:46.383Z,71.26
2018-03-19T11:07:46.418Z,73.86
2018-03-19T11:08:46.470Z,73.52
2018-03-19T11:09:46.438Z,78.44
2018-03-19T11:10:46.409Z,72.49
2018-03-19T11:11:46.455Z,75.51
2018-03-19T11:12:46.446Z,74.57
2018-03-19T11:13:46.687Z,72.86
2018-03-19T11:14:46.459Z,73.62
2018-03-19T11:15:46.465Z,71.35
2018-03-19T11:16:46.472Z,71.35
2018-03-19T11:17:46.491Z,72.77
2018-03-19T11:18:46.546Z,74.00
2018-03-19T11:19:46.487Z,71.73
2018-03-19T11:20:46.485Z,71.83
2018-03-19T11:21:46.496Z,73.14
2018-03-19T11:22:46.530Z,73.81
2018-03-19T11:23:46.568Z,75.42
2018-03-19T11:24:46.558Z,72.86
2018-03-19T11:25:46.535Z,74.66
2018-03-19T11:26:46.537Z,70.69
2018-03-19T11:27:46.558Z,70.97
2018-03-19T11:28:46.547Z,70.78
2018-03-19T11:29:46.619Z,72.77
2018-03-19T11:30:46.552Z,72.86
2018-03-19T11:31:46.574Z,72.77
2018-03-19T11:32:46.558Z,70.59
2018-03-19T11:33:46.580Z,75.42
2018-03-19T11:34:47.060Z,73.14
2018-03-19T11:35:46.600Z,71.26
2018-03-19T11:36:46.586Z,73.71
2018-03-19T11:37:46.596Z,71.54
2018-03-19T11:38:47.481Z,72.96
2018-03-19T11:39:46.689Z,76.45
2018-03-19T11:40:47.369Z,74.28
2018-03-19T11:41:46.672Z,72.02
2018-03-19T11:42:46.635Z,74.47
2018-03-19T11:43:46.635Z,70.40
2018-03-19T11:44:46.713Z,75.98
2018-03-19T11:45:46.684Z,74.76
2018-03-19T11:46:46.696Z,72.96
2018-03-19T11:47:46.672Z,74.95
2018-03-19T11:48:46.711Z,74.47
2018-03-19T11:49:46.709Z,78.81
2018-03-19T11:50:46.725Z,77.59
2018-03-19T11:51:46.713Z,75.51
2018-03-19T11:52:46.696Z,76.26
2018-03-19T11:53:46.685Z,75.64
2018-03-19T11:54:46.708Z,72.96
2018-03-19T11:55:46.755Z,74.95
2018-03-19T11:56:46.738Z,72.96
2018-03-19T11:57:46.772Z,72.30
2018-03-19T11:58:46.723Z,74.85
2018-03-19T11:59:46.742Z,77.91
2018-03-19T12:00:46.782Z,75.42
2018-03-19T12:01:46.760Z,74.47
2018-03-19T12:02:46.761Z,76.55
2018-03-19T12:03:46.787Z,75.60
2018-03-19T12:04:46.766Z,73.62
2018-03-19T12:05:46.828Z,76.07
2018-03-19T12:06:46.782Z,73.47
2018-03-19T12:07:46.777Z,72.77
2018-03-19T12:08:46.806Z,72.67
2018-03-19T12:09:46.796Z,73.71
2018-03-19T12:10:47.155Z,74.95
2018-03-19T12:11:46.826Z,74.66
2018-03-19T12:12:46.842Z,72.77
2018-03-19T12:13:46.836Z,72.96
2018-03-19T12:14:46.838Z,73.71
2018-03-19T12:15:46.880Z,71.50
2018-03-19T12:16:46.825Z,70.88
2018-03-19T12:17:46.851Z,73.02
2018-03-19T12:18:46.859Z,73.05
2018-03-19T12:19:46.878Z,74.19
2018-03-19T12:20:46.913Z,72.07
2018-03-19T12:21:46.916Z,71.41
2018-03-19T12:22:46.895Z,71.98
2018-03-19T12:23:46.885Z,73.52
2018-03-19T12:24:46.878Z,72.39
2018-03-19T12:25:46.972Z,72.20
2018-03-19T12:26:46.960Z,72.20
2018-03-19T12:27:46.907Z,71.64
2018-03-19T12:28:46.928Z,72.11
2018-03-19T12:29:46.911Z,76.97
2018-03-19T12:30:46.994Z,73.66
2018-03-19T12:31:46.954Z,73.52
2018-03-19T12:32:46.925Z,72.58
2018-03-19T12:33:46.936Z,73.11
2018-03-19T12:34:46.947Z,77.02
2018-03-19T12:35:47.016Z,77.21
2018-03-19T12:36:46.956Z,80.08
2018-03-19T12:37:46.984Z,77.82
2018-03-19T12:38:47.028Z,76.59
2018-03-19T12:39:46.975Z,75.32
2018-03-19T12:40:46.999Z,79.48
2018-03-19T12:41:47.040Z,79.53
2018-03-19T12:42:46.990Z,78.12
2018-03-19T12:43:46.997Z,77.83
2018-03-19T12:44:46.996Z,81.46
2018-03-19T12:45:47.016Z,77.59
2018-03-19T12:46:47.051Z,79.00
2018-03-19T12:47:47.012Z,80.84
2018-03-19T12:48:47.021Z,77.25
2018-03-19T12:49:47.038Z,78.48
2018-03-19T12:50:47.021Z,80.84
2018-03-19T12:51:47.068Z,77.06
2018-03-19T12:52:47.030Z,78.20
2018-03-19T12:53:47.037Z,79.14
2018-03-19T12:54:47.032Z,77.06
2018-03-19T12:55:47.044Z,73.43
2018-03-19T12:56:47.105Z,74.05
2018-03-19T12:57:47.045Z,76.79
2018-03-19T12:58:47.434Z,77.50
2018-03-19T12:59:47.055Z,76.26
2018-03-19T13:00:47.078Z,77.40
2018-03-19T13:01:47.126Z,75.51
2018-03-19T13:02:47.075Z,77.40
2018-03-19T13:03:47.162Z,75.60
2018-03-19T13:04:47.064Z,76.26
2018-03-19T13:05:47.085Z,74.09
2018-03-19T13:06:47.086Z,79.00
2018-03-19T13:07:47.158Z,75.51
2018-03-19T13:08:47.162Z,76.17
2018-03-19T13:09:47.089Z,76.36
2018-03-19T13:10:47.117Z,76.64
2018-03-19T13:11:47.116Z,75.32
2018-03-19T13:12:47.162Z,78.72
2018-03-19T13:13:47.105Z,75.32
2018-03-19T13:14:47.130Z,75.98
2018-03-19T13:15:47.102Z,75.23
2018-03-19T13:16:47.127Z,76.07
2018-03-19T13:17:47.183Z,78.72